createdAt,value
2022-08-26T00:00:18.588Z,25.30
2022-08-26T00:01:29.117Z,25.30
2022-08-26T00:02:31.627Z,25.30
2022-08-26T00:03:35.877Z,25.30
2022-08-26T00:04:37.596Z,25.30
2022-08-26T00:05:40.767Z,25.30
2022-08-26T00:06:46.198Z,25.20
2022-08-26T00:07:49.244Z,25.30
2022-08-26T00:08:54.113Z,25.30
2022-08-26T00:09:55.835Z,25.30
2022-08-26T00:10:57.569Z,25.30
2022-08-26T00:12:01.771Z,25.30
2022-08-26T00:13:04.666Z,25.20
2022-08-26T00:14:07.692Z,25.30
2022-08-26T00:15:12.684Z,25.20
2022-08-26T00:16:14.581Z,25.20
2022-08-26T00:17:16.317Z,25.20
2022-08-26T00:18:22.633Z,25.20
2022-08-26T00:19:24.495Z,25.20
2022-08-26T00:20:31.903Z,25.20
2022-08-26T00:21:33.558Z,25.20
2022-08-26T00:22:36.392Z,25.10
2022-08-26T00:23:38.069Z,25.10
2022-08-26T00:24:39.729Z,25.10
2022-08-26T00:25:49.975Z,25.20
2022-08-26T00:26:51.868Z,25.20
2022-08-26T00:27:54.971Z,25.20
2022-08-26T00:28:57.694Z,25.10
2022-08-26T00:30:02.654Z,25.00
2022-08-26T00:31:04.530Z,25.00
2022-08-26T00:32:08.812Z,25.00
2022-08-26T00:33:13.313Z,25.00
2022-08-26T00:34:16.595Z,25.00
2022-08-26T00:35:21.634Z,25.00
2022-08-26T00:36:25.059Z,25.00
2022-08-26T00:37:32.279Z,25.00
2022-08-26T00:38:37.808Z,25.00
2022-08-26T00:39:39.781Z,25.00
2022-08-26T00:40:50.630Z,24.90
2022-08-26T00:41:52.333Z,25.00
2022-08-26T00:42:54.085Z,24.90
2022-08-26T00:43:56.024Z,24.90
2022-08-26T00:44:59.722Z,24.90
2022-08-26T00:46:06.779Z,24.90
2022-08-26T00:47:33.515Z,24.90
2022-08-26T00:48:37.239Z,24.90
2022-08-26T00:49:43.288Z,24.90
2022-08-26T00:50:55.762Z,24.80
2022-08-26T00:52:00.931Z,24.90
2022-08-26T00:53:24.157Z,24.80
2022-08-26T00:54:31.753Z,24.80
2022-08-26T00:55:40.364Z,24.80
2022-08-26T00:56:52.873Z,24.80
2022-08-26T00:57:55.841Z,24.90
2022-08-26T00:59:02.033Z,24.70
2022-08-26T01:00:12.034Z,24.70
2022-08-26T01:01:15.011Z,24.70
2022-08-26T01:02:20.181Z,24.70
2022-08-26T01:03:26.458Z,24.70
2022-08-26T01:04:31.246Z,24.70
2022-08-26T01:05:32.943Z,24.70
2022-08-26T01:06:35.015Z,24.70
2022-08-26T01:07:39.099Z,24.70
2022-08-26T01:08:41.551Z,24.70
2022-08-26T01:09:43.257Z,24.60
2022-08-26T01:10:46.189Z,24.60
2022-08-26T01:11:50.781Z,24.60
2022-08-26T01:12:57.772Z,24.50
2022-08-26T01:14:02.821Z,24.50
2022-08-26T01:15:05.979Z,24.50
2022-08-26T01:16:14.067Z,24.50
2022-08-26T01:17:17.450Z,24.50
2022-08-26T01:18:19.828Z,24.50
2022-08-26T01:20:00.606Z,24.50
2022-08-26T01:21:40.709Z,24.50
2022-08-26T01:22:58.041Z,24.50
2022-08-26T01:24:03.787Z,24.50
2022-08-26T01:25:06.308Z,24.50
2022-08-26T01:26:20.020Z,24.50
2022-08-26T01:27:23.403Z,24.50
2022-08-26T01:28:29.255Z,24.50
2022-08-26T01:29:34.826Z,24.40
2022-08-26T01:30:39.838Z,24.40
2022-08-26T01:31:47.793Z,24.40
2022-08-26T01:32:51.518Z,24.40
2022-08-26T01:34:16.928Z,24.40
2022-08-26T01:35:20.356Z,24.40
2022-08-26T01:36:23.186Z,24.50
2022-08-26T01:37:32.564Z,24.40
2022-08-26T01:38:34.539Z,24.40
2022-08-26T01:39:37.383Z,24.40
2022-08-26T01:40:44.126Z,24.40
2022-08-26T01:41:53.762Z,24.40
2022-08-26T01:42:55.950Z,24.30
2022-08-26T01:43:59.660Z,24.30
2022-08-26T01:45:08.189Z,24.30
2022-08-26T01:46:11.610Z,24.30
2022-08-26T01:47:17.122Z,24.20
2022-08-26T01:48:23.140Z,24.20
2022-08-26T01:49:26.993Z,24.20
2022-08-26T01:50:33.133Z,24.30
2022-08-26T01:51:39.182Z,24.30
2022-08-26T01:52:43.566Z,24.30
2022-08-26T01:53:46.012Z,24.30
2022-08-26T01:54:50.559Z,24.30
2022-08-26T01:55:57.263Z,24.30
2022-08-26T01:56:59.686Z,24.30
2022-08-26T01:58:06.360Z,24.30
2022-08-26T01:59:12.247Z,24.40
2022-08-26T02:00:16.205Z,24.50
2022-08-26T02:01:18.827Z,24.40
2022-08-26T02:02:20.664Z,24.40
2022-08-26T02:03:22.860Z,24.50
2022-08-26T02:04:30.929Z,24.40
2022-08-26T02:05:33.096Z,24.40
2022-08-26T02:06:36.989Z,24.40
2022-08-26T02:07:40.301Z,24.40
2022-08-26T02:08:45.468Z,24.40
2022-08-26T02:09:47.823Z,24.40
2022-08-26T02:10:54.917Z,24.40
2022-08-26T02:11:57.498Z,24.50
2022-08-26T02:12:59.554Z,24.40
2022-08-26T02:14:08.591Z,24.40
2022-08-26T02:15:12.871Z,24.30
2022-08-26T02:16:18.481Z,24.50
2022-08-26T02:17:26.191Z,24.30
2022-08-26T02:18:30.482Z,24.50
2022-08-26T02:19:35.513Z,24.30
2022-08-26T02:20:38.033Z,24.30
2022-08-26T02:21:41.081Z,24.30
2022-08-26T02:22:45.179Z,24.30
2022-08-26T02:23:47.517Z,24.30
2022-08-26T02:25:10.190Z,24.30
2022-08-26T02:26:12.051Z,24.20
2022-08-26T02:27:19.532Z,24.20
2022-08-26T02:28:21.550Z,24.20
2022-08-26T02:29:38.396Z,24.20
2022-08-26T02:30:41.125Z,24.20
2022-08-26T02:31:43.289Z,24.30
2022-08-26T02:32:45.347Z,24.10
2022-08-26T02:33:47.109Z,24.10
2022-08-26T02:34:48.958Z,24.30
2022-08-26T02:35:52.482Z,24.20
2022-08-26T02:36:56.970Z,24.20
2022-08-26T02:37:59.412Z,24.20
2022-08-26T02:39:01.312Z,24.20
2022-08-26T02:40:04.908Z,24.20
2022-08-26T02:41:06.771Z,24.20
2022-08-26T02:42:10.121Z,24.20
2022-08-26T02:43:12.598Z,24.30
2022-08-26T02:44:14.403Z,24.20
2022-08-26T02:45:23.177Z,24.20
2022-08-26T02:46:29.812Z,24.20
2022-08-26T02:47:33.529Z,24.20
2022-08-26T02:48:35.348Z,24.20
2022-08-26T02:49:38.032Z,24.20
2022-08-26T02:50:41.024Z,24.20
2022-08-26T02:51:44.349Z,24.20
2022-08-26T02:52:48.288Z,24.20
2022-08-26T02:53:50.223Z,24.10
2022-08-26T02:54:53.100Z,24.10
2022-08-26T02:55:55.609Z,24.10
2022-08-26T02:56:57.305Z,24.10
2022-08-26T02:57:59.558Z,24.00
2022-08-26T02:59:01.289Z,24.00
2022-08-26T03:00:07.002Z,24.20
2022-08-26T03:01:19.923Z,24.00
2022-08-26T03:02:23.767Z,24.20
2022-08-26T03:03:25.868Z,24.00
2022-08-26T03:04:33.355Z,24.00
2022-08-26T03:05:35.503Z,24.00
2022-08-26T03:06:40.673Z,24.00
2022-08-26T03:07:43.880Z,24.00
2022-08-26T03:08:47.628Z,24.00
2022-08-26T03:09:49.329Z,24.00
2022-08-26T03:10:53.396Z,24.10
2022-08-26T03:11:55.704Z,24.00
2022-08-26T03:12:58.141Z,24.00
2022-08-26T03:14:03.569Z,24.00
2022-08-26T03:15:16.631Z,24.00
2022-08-26T03:16:20.657Z,24.00
2022-08-26T03:17:22.531Z,23.90
2022-08-26T03:18:24.258Z,23.80
2022-08-26T03:19:26.563Z,23.80
2022-08-26T03:20:28.256Z,23.80
2022-08-26T03:21:30.533Z,23.70
2022-08-26T03:22:33.610Z,23.70
2022-08-26T03:23:35.443Z,23.70
2022-08-26T03:24:37.189Z,23.70
2022-08-26T03:25:40.215Z,23.70
2022-08-26T03:26:51.991Z,23.70
2022-08-26T03:27:54.769Z,23.70
2022-08-26T03:29:18.002Z,23.80
2022-08-26T03:30:39.345Z,23.70
2022-08-26T03:31:47.236Z,23.70
2022-08-26T03:32:49.556Z,23.70
2022-08-26T03:33:51.902Z,23.80
2022-08-26T03:34:54.284Z,23.60
2022-08-26T03:35:56.067Z,23.60
2022-08-26T03:36:58.932Z,23.60
2022-08-26T03:38:01.982Z,23.60
2022-08-26T03:39:05.085Z,23.60
2022-08-26T03:40:09.998Z,23.60
2022-08-26T03:41:12.348Z,23.60
2022-08-26T03:42:15.353Z,23.60
2022-08-26T03:43:19.727Z,23.60
2022-08-26T03:44:24.248Z,23.60
2022-08-26T03:45:27.457Z,23.60
2022-08-26T03:46:30.553Z,23.60
2022-08-26T03:47:33.758Z,23.60
2022-08-26T03:48:36.097Z,23.70
2022-08-26T03:49:39.443Z,23.60
2022-08-26T03:50:42.532Z,23.80
2022-08-26T03:51:45.084Z,23.60
2022-08-26T03:52:47.725Z,23.60
2022-08-26T03:53:49.357Z,23.60
2022-08-26T03:54:51.266Z,23.60
2022-08-26T03:55:53.105Z,23.50
2022-08-26T03:56:54.862Z,23.50
2022-08-26T03:57:56.558Z,23.70
2022-08-26T03:59:01.081Z,23.50
2022-08-26T04:00:09.481Z,23.50
2022-08-26T04:01:12.949Z,23.50
2022-08-26T04:02:19.778Z,23.40
2022-08-26T04:03:41.842Z,23.40
2022-08-26T04:04:43.536Z,23.40
2022-08-26T04:05:45.578Z,23.30
2022-08-26T04:06:47.914Z,23.30
2022-08-26T04:07:50.100Z,23.30
2022-08-26T04:08:53.718Z,23.30
2022-08-26T04:09:58.691Z,23.50
2022-08-26T04:11:01.323Z,23.30
2022-08-26T04:12:04.971Z,23.30
2022-08-26T04:13:06.799Z,23.30
2022-08-26T04:14:17.616Z,23.30
2022-08-26T04:15:21.897Z,23.40
2022-08-26T04:16:23.896Z,23.30
2022-08-26T04:17:29.533Z,23.30
2022-08-26T04:18:33.190Z,23.30
2022-08-26T04:19:39.579Z,23.30
2022-08-26T04:20:41.627Z,23.20
2022-08-26T04:21:44.988Z,23.20
2022-08-26T04:22:47.487Z,23.20
2022-08-26T04:23:50.006Z,23.10
2022-08-26T04:24:52.133Z,23.10
2022-08-26T04:25:54.668Z,23.00
2022-08-26T04:26:56.659Z,23.20
2022-08-26T04:27:58.541Z,23.10
2022-08-26T04:29:01.650Z,23.10
2022-08-26T04:30:04.931Z,23.10
2022-08-26T04:31:12.551Z,23.00
2022-08-26T04:32:14.411Z,23.00
2022-08-26T04:33:16.488Z,23.10
2022-08-26T04:34:34.212Z,23.00
2022-08-26T04:35:37.088Z,23.00
2022-08-26T04:36:39.633Z,22.90
2022-08-26T04:37:44.336Z,23.00
2022-08-26T04:38:46.372Z,23.10
2022-08-26T04:39:52.316Z,23.00
2022-08-26T04:40:54.376Z,23.00
2022-08-26T04:41:57.760Z,23.00
2022-08-26T04:42:59.724Z,23.00
2022-08-26T04:44:03.170Z,23.00
2022-08-26T04:45:10.413Z,23.00
2022-08-26T04:46:17.438Z,22.90
2022-08-26T04:47:21.958Z,22.90
2022-08-26T04:48:23.700Z,23.00
2022-08-26T04:49:26.117Z,22.80
2022-08-26T04:50:29.612Z,22.80
2022-08-26T04:51:33.254Z,22.80
2022-08-26T04:52:37.112Z,22.80
2022-08-26T04:53:41.323Z,22.70
2022-08-26T04:54:44.911Z,22.90
2022-08-26T04:55:48.440Z,22.70
2022-08-26T04:56:50.830Z,22.70
2022-08-26T04:57:53.468Z,22.70
2022-08-26T04:58:56.896Z,22.90
2022-08-26T04:59:58.557Z,22.70
2022-08-26T05:01:01.752Z,22.70
2022-08-26T05:02:04.071Z,22.70
2022-08-26T05:03:10.812Z,22.70
2022-08-26T05:04:18.791Z,22.70
2022-08-26T05:05:21.093Z,22.80
2022-08-26T05:06:22.881Z,22.80
2022-08-26T05:07:24.691Z,22.60
2022-08-26T05:08:26.421Z,22.80
2022-08-26T05:09:29.209Z,22.80
2022-08-26T05:10:34.917Z,22.90
2022-08-26T05:11:38.064Z,22.70
2022-08-26T05:12:39.800Z,22.70
2022-08-26T05:13:42.333Z,22.90
2022-08-26T05:14:44.391Z,22.80
2022-08-26T05:15:47.902Z,22.70
2022-08-26T05:16:51.104Z,22.70
2022-08-26T05:17:53.043Z,22.70
2022-08-26T05:18:57.517Z,22.70
2022-08-26T05:19:59.270Z,22.70
2022-08-26T05:21:03.947Z,22.70
2022-08-26T05:22:06.417Z,22.60
2022-08-26T05:23:09.777Z,22.60
2022-08-26T05:24:12.726Z,22.60
2022-08-26T05:25:14.860Z,22.70
2022-08-26T05:26:17.472Z,22.80
2022-08-26T05:27:24.885Z,22.70
2022-08-26T05:28:28.647Z,22.70
2022-08-26T05:29:30.437Z,22.90
2022-08-26T05:30:32.361Z,22.80
2022-08-26T05:31:35.105Z,22.70
2022-08-26T05:32:36.816Z,23.00
2022-08-26T05:33:38.572Z,22.80
2022-08-26T05:34:43.355Z,22.80
2022-08-26T05:35:46.155Z,22.90
2022-08-26T05:36:48.332Z,22.90
2022-08-26T05:37:50.058Z,23.00
2022-08-26T05:38:53.093Z,23.00
2022-08-26T05:39:54.847Z,23.00
2022-08-26T05:40:56.588Z,23.00
2022-08-26T05:41:58.929Z,23.00
2022-08-26T05:43:02.023Z,23.10
2022-08-26T05:44:06.783Z,23.00
2022-08-26T05:45:08.736Z,22.90
2022-08-26T05:46:10.947Z,22.90
2022-08-26T05:47:12.611Z,23.00
2022-08-26T05:48:17.100Z,23.00
2022-08-26T05:49:20.376Z,23.00
2022-08-26T05:50:25.622Z,23.00
2022-08-26T05:51:27.734Z,23.00
2022-08-26T05:52:33.627Z,23.00
2022-08-26T05:53:37.151Z,23.00
2022-08-26T05:54:40.590Z,23.00
2022-08-26T05:55:44.191Z,23.10
2022-08-26T05:56:46.249Z,23.00
2022-08-26T05:57:49.038Z,23.00
2022-08-26T05:58:50.873Z,23.00
2022-08-26T05:59:52.592Z,23.00
2022-08-26T06:01:16.679Z,22.80
2022-08-26T06:02:18.904Z,22.80
2022-08-26T06:03:21.087Z,22.80
2022-08-26T06:04:27.095Z,22.80
2022-08-26T06:05:31.795Z,22.80
2022-08-26T06:06:37.061Z,22.80
2022-08-26T06:07:58.696Z,22.90
2022-08-26T06:09:03.060Z,22.90
2022-08-26T06:10:30.455Z,23.00
2022-08-26T06:11:29.287Z,23.00
2022-08-26T06:12:31.101Z,23.00
2022-08-26T06:13:34.288Z,22.90
2022-08-26T06:14:36.739Z,23.00
2022-08-26T06:15:46.916Z,22.90
2022-08-26T06:16:51.814Z,22.90
2022-08-26T06:17:53.524Z,22.80
2022-08-26T06:18:55.409Z,22.80
2022-08-26T06:19:57.357Z,22.80
2022-08-26T06:20:59.925Z,22.80
2022-08-26T06:22:22.524Z,23.00
2022-08-26T06:23:46.572Z,22.80
2022-08-26T06:25:07.250Z,22.80
2022-08-26T06:26:11.254Z,22.80
2022-08-26T06:27:15.269Z,22.90
2022-08-26T06:28:17.458Z,22.90
2022-08-26T06:29:24.257Z,22.80
2022-08-26T06:30:26.750Z,22.70
2022-08-26T06:31:29.855Z,22.70
2022-08-26T06:32:32.132Z,22.70
2022-08-26T06:33:33.938Z,22.70
2022-08-26T06:34:36.043Z,22.90
2022-08-26T06:35:39.677Z,22.80
2022-08-26T06:36:43.886Z,22.80
2022-08-26T06:37:46.065Z,22.90
2022-08-26T06:38:49.001Z,23.00
2022-08-26T06:39:52.175Z,23.00
2022-08-26T06:40:55.110Z,23.00
2022-08-26T06:41:56.877Z,23.00
2022-08-26T06:42:58.827Z,23.00
2022-08-26T06:44:01.861Z,23.20
2022-08-26T06:45:04.301Z,23.00
2022-08-26T06:46:10.244Z,23.00
2022-08-26T06:47:13.739Z,23.00
2022-08-26T06:48:18.610Z,23.00
2022-08-26T06:49:20.478Z,23.00
2022-08-26T06:50:28.988Z,23.00
2022-08-26T06:51:34.628Z,23.00
2022-08-26T06:52:36.478Z,23.00
2022-08-26T06:53:41.886Z,23.00
2022-08-26T06:54:44.234Z,23.00
2022-08-26T06:55:48.275Z,23.00
2022-08-26T06:56:53.857Z,23.00
2022-08-26T06:57:56.901Z,23.00
2022-08-26T06:58:58.678Z,23.00
2022-08-26T07:00:00.521Z,23.00
2022-08-26T07:01:09.073Z,23.10
2022-08-26T07:02:13.888Z,23.10
2022-08-26T07:03:15.897Z,23.20
2022-08-26T07:04:20.308Z,23.30
2022-08-26T07:05:26.402Z,23.20
2022-08-26T07:06:28.523Z,23.30
2022-08-26T07:07:31.687Z,23.30
2022-08-26T07:08:33.398Z,23.30
2022-08-26T07:09:37.451Z,23.30
2022-08-26T07:10:39.566Z,23.30
2022-08-26T07:11:43.474Z,23.30
2022-08-26T07:12:47.055Z,23.30
2022-08-26T07:13:50.621Z,23.30
2022-08-26T07:14:53.644Z,23.40
2022-08-26T07:15:57.930Z,23.60
2022-08-26T07:17:09.190Z,23.50
2022-08-26T07:18:13.926Z,23.50
2022-08-26T07:19:17.448Z,23.50
2022-08-26T07:20:31.564Z,23.60
2022-08-26T07:21:34.085Z,23.60
2022-08-26T07:22:37.061Z,23.70
2022-08-26T07:23:38.971Z,23.70
2022-08-26T07:24:42.639Z,23.70
2022-08-26T07:25:45.813Z,23.70
2022-08-26T07:26:47.789Z,23.80
2022-08-26T07:27:54.051Z,23.80
2022-08-26T07:28:58.248Z,23.90
2022-08-26T07:30:02.071Z,23.80
2022-08-26T07:31:07.337Z,23.80
2022-08-26T07:32:10.257Z,23.90
2022-08-26T07:33:11.980Z,23.90
2022-08-26T07:34:13.968Z,23.90
2022-08-26T07:35:16.230Z,23.90
2022-08-26T07:36:20.434Z,23.90
2022-08-26T07:37:22.728Z,24.00
2022-08-26T07:38:24.805Z,24.00
2022-08-26T07:39:27.393Z,24.00
2022-08-26T07:40:29.253Z,24.00
2022-08-26T07:41:31.125Z,24.00
2022-08-26T07:42:34.326Z,24.00
2022-08-26T07:43:37.246Z,24.00
2022-08-26T07:44:41.925Z,24.00
2022-08-26T07:45:43.653Z,24.10
2022-08-26T07:46:52.200Z,24.10
2022-08-26T07:47:56.023Z,24.20
2022-08-26T07:48:58.730Z,24.20
2022-08-26T07:50:00.437Z,24.30
2022-08-26T07:51:02.178Z,24.30
2022-08-26T07:52:04.814Z,24.50
2022-08-26T07:53:07.082Z,24.40
2022-08-26T07:54:13.625Z,24.40
2022-08-26T07:55:16.567Z,24.40
2022-08-26T07:56:18.323Z,24.40
2022-08-26T07:57:20.741Z,24.40
2022-08-26T07:58:22.792Z,24.40
2022-08-26T07:59:25.500Z,24.40
2022-08-26T08:00:30.407Z,24.40
2022-08-26T08:01:32.733Z,24.40
2022-08-26T08:02:35.400Z,24.40
2022-08-26T08:03:37.789Z,24.40
2022-08-26T08:04:40.134Z,24.60
2022-08-26T08:05:43.556Z,24.50
2022-08-26T08:06:48.269Z,24.50
2022-08-26T08:07:53.661Z,24.60
2022-08-26T08:09:14.811Z,24.60
2022-08-26T08:10:22.415Z,24.60
2022-08-26T08:11:29.523Z,24.60
2022-08-26T08:12:32.125Z,24.60
2022-08-26T08:13:33.827Z,24.70
2022-08-26T08:14:37.133Z,24.70
2022-08-26T08:15:39.489Z,24.70
2022-08-26T08:16:45.834Z,24.70
2022-08-26T08:17:50.542Z,24.70
2022-08-26T08:18:54.058Z,24.80
2022-08-26T08:19:55.728Z,24.80
2022-08-26T08:21:10.800Z,24.80
2022-08-26T08:22:23.512Z,24.80
2022-08-26T08:23:26.061Z,24.80
2022-08-26T08:24:28.821Z,24.80
2022-08-26T08:25:31.715Z,24.90
2022-08-26T08:26:35.219Z,24.90
2022-08-26T08:27:39.373Z,24.80
2022-08-26T08:28:41.615Z,24.80
2022-08-26T08:29:43.293Z,24.90
2022-08-26T08:30:45.086Z,24.80
2022-08-26T08:31:57.993Z,24.90
2022-08-26T08:33:00.474Z,24.90
2022-08-26T08:34:02.166Z,24.90
2022-08-26T08:35:11.623Z,24.80
2022-08-26T08:36:18.626Z,25.00
2022-08-26T08:37:23.168Z,25.00
2022-08-26T08:38:26.020Z,25.00
2022-08-26T08:39:28.132Z,25.10
2022-08-26T08:40:30.018Z,25.10
2022-08-26T08:41:56.941Z,25.10
2022-08-26T08:43:06.547Z,25.20
2022-08-26T08:44:22.839Z,25.20
2022-08-26T08:45:36.593Z,25.20
2022-08-26T08:46:42.158Z,25.20
2022-08-26T08:47:54.018Z,25.30
2022-08-26T08:48:59.755Z,25.30
2022-08-26T08:50:36.462Z,25.30
2022-08-26T08:51:51.242Z,25.30
2022-08-26T08:53:11.178Z,25.20
2022-08-26T08:54:13.155Z,25.30
2022-08-26T08:55:18.121Z,25.30
2022-08-26T08:56:37.724Z,25.30
2022-08-26T08:58:05.470Z,25.30
2022-08-26T08:59:12.720Z,25.40
2022-08-26T09:00:20.020Z,25.40
2022-08-26T09:01:52.497Z,25.40
2022-08-26T09:03:32.289Z,25.40
2022-08-26T09:04:51.821Z,25.50
2022-08-26T09:05:55.476Z,25.50
2022-08-26T09:07:00.465Z,25.60
2022-08-26T09:08:11.072Z,25.60
2022-08-26T09:09:22.437Z,25.60
2022-08-26T09:10:36.409Z,25.60
2022-08-26T09:11:38.782Z,25.60
2022-08-26T09:12:40.449Z,25.60
2022-08-26T09:13:48.087Z,25.70
2022-08-26T09:14:51.114Z,25.70
2022-08-26T09:16:15.242Z,25.80
2022-08-26T09:17:48.453Z,25.80
2022-08-26T09:18:59.156Z,25.90
2022-08-26T09:20:10.639Z,25.90
2022-08-26T09:21:18.128Z,26.00
2022-08-26T09:22:36.445Z,26.00
2022-08-26T09:23:42.812Z,26.00
2022-08-26T09:24:48.415Z,26.10
2022-08-26T09:27:01.230Z,26.10
2022-08-26T09:28:03.668Z,26.20
2022-08-26T09:29:14.189Z,26.20
2022-08-26T09:30:32.948Z,26.30
2022-08-26T09:31:37.310Z,26.40
2022-08-26T09:32:40.271Z,26.50
2022-08-26T09:33:42.460Z,26.40
2022-08-26T09:35:02.281Z,26.50
2022-08-26T09:36:39.062Z,26.60
2022-08-26T09:38:53.701Z,26.70
2022-08-26T09:40:13.579Z,26.70
2022-08-26T09:41:27.225Z,26.70
2022-08-26T09:42:28.930Z,26.80
2022-08-26T09:43:31.713Z,26.90
2022-08-26T09:44:34.189Z,26.90
2022-08-26T09:45:38.961Z,27.00
2022-08-26T09:46:45.017Z,27.00
2022-08-26T09:47:46.781Z,27.00
2022-08-26T09:48:51.668Z,27.10
2022-08-26T09:50:10.034Z,27.20
2022-08-26T09:51:20.088Z,27.20
2022-08-26T09:52:24.741Z,27.20
2022-08-26T09:53:30.948Z,27.30
2022-08-26T09:54:33.878Z,27.30
2022-08-26T09:55:37.424Z,27.30
2022-08-26T09:56:40.045Z,27.40
2022-08-26T09:57:54.032Z,27.50
2022-08-26T09:58:57.178Z,27.50
2022-08-26T10:00:01.334Z,27.50
2022-08-26T10:01:07.665Z,27.60
2022-08-26T10:02:36.918Z,27.60
2022-08-26T10:03:40.459Z,27.70
2022-08-26T10:04:51.272Z,27.70
2022-08-26T10:06:20.937Z,27.80
2022-08-26T10:07:50.236Z,27.80
2022-08-26T10:08:59.017Z,27.80
2022-08-26T10:10:04.407Z,27.90
2022-08-26T10:11:17.942Z,27.90
2022-08-26T10:12:23.113Z,28.00
2022-08-26T10:13:40.976Z,28.00
2022-08-26T10:14:51.154Z,28.10
2022-08-26T10:16:00.923Z,28.10
2022-08-26T10:17:31.603Z,28.20
2022-08-26T10:18:43.767Z,28.30
2022-08-26T10:19:56.579Z,28.30
2022-08-26T10:21:18.059Z,28.30
2022-08-26T10:22:31.605Z,28.40
2022-08-26T10:24:50.831Z,28.40
2022-08-26T10:26:01.881Z,28.50
2022-08-26T10:27:29.427Z,28.50
2022-08-26T10:28:35.334Z,28.60
2022-08-26T10:29:45.722Z,28.60
2022-08-26T10:31:18.025Z,28.60
2022-08-26T10:32:32.732Z,28.70
2022-08-26T10:33:38.464Z,28.70
2022-08-26T10:34:40.261Z,28.70
2022-08-26T10:36:05.921Z,28.70
2022-08-26T10:37:34.922Z,28.80
2022-08-26T10:38:40.074Z,28.80
2022-08-26T10:39:53.077Z,28.80
2022-08-26T10:41:18.294Z,28.90
2022-08-26T10:42:37.752Z,28.90
2022-08-26T10:43:51.021Z,29.00
2022-08-26T10:44:58.750Z,29.00
2022-08-26T10:46:04.937Z,29.10
2022-08-26T10:47:36.292Z,29.10
2022-08-26T10:49:13.161Z,29.20
2022-08-26T10:50:14.809Z,29.20
2022-08-26T10:51:35.467Z,29.30
2022-08-26T10:52:52.686Z,29.30
2022-08-26T10:54:05.266Z,29.40
2022-08-26T10:55:22.731Z,29.40
2022-08-26T10:56:54.395Z,29.50
2022-08-26T10:58:26.203Z,29.50
2022-08-26T10:59:29.389Z,29.60
2022-08-26T11:01:10.149Z,29.60
2022-08-26T11:02:50.307Z,29.60
2022-08-26T11:04:20.549Z,29.70
2022-08-26T11:05:24.699Z,29.80
2022-08-26T11:06:29.035Z,29.90
2022-08-26T11:07:51.492Z,29.90
2022-08-26T11:08:59.676Z,29.90
2022-08-26T11:10:06.742Z,30.00
2022-08-26T11:11:08.532Z,30.00
2022-08-26T11:12:12.781Z,30.10
2022-08-26T11:13:14.546Z,30.10
2022-08-26T11:14:29.241Z,30.20
2022-08-26T11:15:31.883Z,30.30
2022-08-26T11:16:45.471Z,30.30
2022-08-26T11:17:47.247Z,30.30
2022-08-26T11:18:51.248Z,30.40
2022-08-26T11:20:02.170Z,30.40
2022-08-26T11:21:44.528Z,30.40
2022-08-26T11:22:47.855Z,30.50
2022-08-26T11:23:52.965Z,30.50
2022-08-26T11:24:54.820Z,30.50
2022-08-26T11:25:56.965Z,30.50
2022-08-26T11:26:59.180Z,30.60
2022-08-26T11:28:02.269Z,30.60
2022-08-26T11:29:04.417Z,30.60
2022-08-26T11:30:14.959Z,30.70
2022-08-26T11:31:25.841Z,30.70
2022-08-26T11:32:38.931Z,30.70
2022-08-26T11:33:43.991Z,30.70
2022-08-26T11:34:59.129Z,30.70
2022-08-26T11:36:12.416Z,30.70
2022-08-26T11:37:17.623Z,30.70
2022-08-26T11:38:27.146Z,30.70
2022-08-26T11:39:36.699Z,30.80
2022-08-26T11:40:41.543Z,30.80
2022-08-26T11:41:49.387Z,30.90
2022-08-26T11:43:00.002Z,31.00
2022-08-26T11:44:05.376Z,31.00
2022-08-26T11:45:25.108Z,31.00
2022-08-26T11:46:31.322Z,31.00
2022-08-26T11:47:34.343Z,31.00
2022-08-26T11:48:37.437Z,31.00
2022-08-26T11:49:39.621Z,31.00
2022-08-26T11:50:54.387Z,30.90
2022-08-26T11:52:22.593Z,30.90
2022-08-26T11:53:26.148Z,30.90
2022-08-26T11:54:35.392Z,30.90
2022-08-26T11:55:43.382Z,31.00
2022-08-26T11:56:48.724Z,31.00
2022-08-26T11:57:55.482Z,31.10
2022-08-26T11:59:00.449Z,31.10
2022-08-26T12:00:06.449Z,31.20
2022-08-26T12:01:13.275Z,31.20
2022-08-26T12:02:19.421Z,31.20
2022-08-26T12:03:45.874Z,31.20
2022-08-26T12:04:51.025Z,31.30
2022-08-26T12:05:53.505Z,31.30
2022-08-26T12:06:57.054Z,31.40
2022-08-26T12:08:08.223Z,31.40
2022-08-26T12:09:20.347Z,31.40
2022-08-26T12:10:30.059Z,31.50
2022-08-26T12:11:35.829Z,31.50
2022-08-26T12:12:39.365Z,31.60
2022-08-26T12:13:42.613Z,31.60
2022-08-26T12:14:44.985Z,31.60
2022-08-26T12:15:59.794Z,31.60
2022-08-26T12:17:15.960Z,31.60
2022-08-26T12:18:29.019Z,31.50
2022-08-26T12:19:34.261Z,31.50
2022-08-26T12:20:48.552Z,31.50
2022-08-26T12:21:51.126Z,31.50
2022-08-26T12:22:53.888Z,31.70
2022-08-26T12:23:58.438Z,31.60
2022-08-26T12:25:07.140Z,31.60
2022-08-26T12:26:34.921Z,31.70
2022-08-26T12:27:42.807Z,31.70
2022-08-26T12:28:49.199Z,31.80
2022-08-26T12:30:06.843Z,31.80
2022-08-26T12:31:10.330Z,31.80
2022-08-26T12:32:17.560Z,31.80
2022-08-26T12:33:22.879Z,31.80
2022-08-26T12:34:28.055Z,31.80
2022-08-26T12:35:33.589Z,31.80
2022-08-26T12:36:42.933Z,31.80
2022-08-26T12:37:49.504Z,31.90
2022-08-26T12:38:55.414Z,31.90
2022-08-26T12:40:34.337Z,32.00
2022-08-26T12:41:51.701Z,32.10
2022-08-26T12:42:53.804Z,32.20
2022-08-26T12:43:56.669Z,32.20
2022-08-26T12:45:06.512Z,32.30
2022-08-26T12:46:16.336Z,32.20
2022-08-26T12:47:43.188Z,32.30
2022-08-26T12:48:49.014Z,32.20
2022-08-26T12:50:18.551Z,32.30
2022-08-26T12:51:25.440Z,32.30
2022-08-26T12:52:32.155Z,32.40
2022-08-26T12:53:41.454Z,32.40
2022-08-26T12:55:00.158Z,32.40
2022-08-26T12:56:24.936Z,32.40
2022-08-26T12:57:35.215Z,32.50
2022-08-26T12:58:39.210Z,32.50
2022-08-26T12:59:41.663Z,32.50
2022-08-26T13:00:48.760Z,32.50
2022-08-26T13:01:51.973Z,32.60
2022-08-26T13:02:54.864Z,32.60
2022-08-26T13:03:56.694Z,32.60
2022-08-26T13:05:00.780Z,32.60
2022-08-26T13:06:09.620Z,32.60
2022-08-26T13:07:27.078Z,32.70
2022-08-26T13:08:28.730Z,32.70
2022-08-26T13:09:31.381Z,32.70
2022-08-26T13:10:39.315Z,32.80
2022-08-26T13:11:41.085Z,32.90
2022-08-26T13:12:42.742Z,32.90
2022-08-26T13:13:46.012Z,32.90
2022-08-26T13:14:49.384Z,32.90
2022-08-26T13:15:52.487Z,32.90
2022-08-26T13:16:54.267Z,33.00
2022-08-26T13:17:55.980Z,33.00
2022-08-26T13:19:10.445Z,33.00
2022-08-26T13:20:12.956Z,32.90
2022-08-26T13:21:23.224Z,32.90
2022-08-26T13:22:25.595Z,32.80
2022-08-26T13:23:28.888Z,32.70
2022-08-26T13:24:36.995Z,32.60
2022-08-26T13:25:40.563Z,32.50
2022-08-26T13:26:45.285Z,32.50
2022-08-26T13:27:47.121Z,32.50
2022-08-26T13:29:01.406Z,32.50
2022-08-26T13:30:04.029Z,32.60
2022-08-26T13:31:06.362Z,32.60
2022-08-26T13:32:10.602Z,32.60
2022-08-26T13:33:16.641Z,32.60
2022-08-26T13:34:23.456Z,32.50
2022-08-26T13:35:25.441Z,32.50
2022-08-26T13:36:27.278Z,32.40
2022-08-26T13:37:35.032Z,32.30
2022-08-26T13:38:37.552Z,32.30
2022-08-26T13:39:39.640Z,32.20
2022-08-26T13:40:44.380Z,32.20
2022-08-26T13:41:47.642Z,32.10
2022-08-26T13:42:49.877Z,32.10
2022-08-26T13:43:53.505Z,32.10
2022-08-26T13:44:58.080Z,32.20
2022-08-26T13:46:00.956Z,32.20
2022-08-26T13:47:02.887Z,32.30
2022-08-26T13:48:06.733Z,32.30
2022-08-26T13:49:08.778Z,32.40
2022-08-26T13:50:10.499Z,32.40
2022-08-26T13:51:12.426Z,32.40
2022-08-26T13:52:14.547Z,32.40
2022-08-26T13:53:17.885Z,32.50
2022-08-26T13:54:20.348Z,32.50
2022-08-26T13:55:22.324Z,32.60
2022-08-26T13:56:27.365Z,32.70
2022-08-26T13:57:29.969Z,32.70
2022-08-26T13:58:31.783Z,32.70
2022-08-26T13:59:33.494Z,32.70
2022-08-26T14:00:37.838Z,32.60
2022-08-26T14:01:40.156Z,32.60
2022-08-26T14:02:41.894Z,32.50
2022-08-26T14:03:43.793Z,32.40
2022-08-26T14:04:45.753Z,32.40
2022-08-26T14:05:47.633Z,32.20
2022-08-26T14:06:49.476Z,32.30
2022-08-26T14:07:51.282Z,32.20
2022-08-26T14:08:53.175Z,32.20
2022-08-26T14:09:55.007Z,32.10
2022-08-26T14:10:56.669Z,32.10
2022-08-26T14:12:00.976Z,32.00
2022-08-26T14:13:04.136Z,32.00
2022-08-26T14:14:07.068Z,32.00
2022-08-26T14:15:09.372Z,31.90
2022-08-26T14:16:16.436Z,31.90
2022-08-26T14:17:21.754Z,31.80
2022-08-26T14:18:39.776Z,31.80
2022-08-26T14:19:46.510Z,31.70